Terminal Aerodrome Forecast
Issued by NWS

Home | Current Version | Previous Version | Text Only | Print | Product List | Glossary On
Versions: 1 2 3 4 5 6 7 8 9 10 11 12 13
262
FTUS46 KSTO 261741
TAFSMF
TAF
KSMF 261741Z 2618/2718 VRB05KT P6SM BKN025 OVC060
     FM261900 16005KT P6SM BKN050 OVC100
     FM270200 17006KT P6SM SCT250
     FM271600 35005KT P6SM SKC=

USA.gov is the U.S. government's official web portal to all federal, state and local government web resources and services.